AVL weather

Asheville Regional Airport
Asheville, North Carolina, United States

Public forecast

Using degrees Fahrenheit for public forecast. Weather courtesy of forecast.io.

Current aviation weather report (METAR) for Asheville Regional Airport

Retrieved 2019/11/22 13:54 UTC (10 minutes ago):

KAVL 221354Z 33009KT 10SM OVC120 11/03 A3008 RMK AO2 SLP177 T01060033

Aviation forecast (TAF) for Asheville Regional Airport

Retrieved 2019/11/22 12:45 UTC (1 hour ago):

TAF KAVL 221142Z 2212/2312 35004KT P6SM BKN080 FM221800 33007KT P6SM OVC050 FM230000 34005KT P6SM OVC030 FM230500 35004KT 6SM -SHRA BR OVC024 FM230900 13004KT 4SM -SHRA BR OVC013 FM231100 14005KT 3SM -SHRA BR OVC009